CheckWX is a tool to help pilots better visualize weather data.  It is not intended as a substitute for an official pre-flight weather briefing.

00:57:39 UTC

BIVM METAR
Vestmannaeyjar Airport
Vestmannaeyjar, Iceland
Current

6 hours ago

BIVM 231850Z 24023KT 9999 3000W -RA SCT012 BKN020 02/02 Q0995
Observed
Mar-23 @ 18:50 UTC
Wind
  • 240° at 23 KTS
Visibility
10,000+ meters
Flight Rules
MVFR
Conditions
Light Rain
Cloud Levels
  • Scattered at 1,200' AGL
  • Broken at 2,000' AGL
Temperature
C / 36°F
Dewpoint
C / 36°F
Humidity
100%
Altimeter
29.38" Hg
Pressure
994.92 hPa
Previous

7 hours ago

BIVM 231800Z 23023KT 9999 SCT012 BKN020 03/02 Q0996
Observed
Mar-23 @ 18:00 UTC
Wind
  • 230° at 23 KTS
Visibility
10,000+ meters
Flight Rules
MVFR
Cloud Levels
  • Scattered at 1,200' AGL
  • Broken at 2,000' AGL
Temperature
C / 37°F
Dewpoint
C / 36°F
Humidity
93%
Altimeter
29.41" Hg
Pressure
995.92 hPa
Previous

8 hours ago

BIVM 231700Z 22016KT 9999 SCT012 BKN020 04/02 Q0997
Observed
Mar-23 @ 17:00 UTC
Wind
  • 220° at 16 KTS
Visibility
10,000+ meters
Flight Rules
MVFR
Cloud Levels
  • Scattered at 1,200' AGL
  • Broken at 2,000' AGL
Temperature
C / 39°F
Dewpoint
C / 36°F
Humidity
87%
Altimeter
29.44" Hg
Pressure
996.92 hPa